Time;durP1;ratioP1;P1;durP2;ratioP2;P2;SDS_P1;SDS_P2;PMS_P1;PMS_P2;Temp;Humidity;BMP_temperature;BMP_pressure;BME280_temperature;BME280_humidity;BME280_pressure;Samples;Min_cycle;Max_cycle;Signal;HPM_P1;HPM_P2
2022/01/05 00:00:37;;;;;;;;;;;;;;;;;;5014944;28;20417;-82
2022/01/05 00:03:20;;;;;;;;;;;;;;;;;;5014382;28;20012;-83
2022/01/05 00:05:45;;;;;;;;;;;;;;;;;;4996951;28;19918;-82
2022/01/05 00:08:12;;;;;;;;;;;;;;;;;;5014871;28;19917;-81
2022/01/05 00:10:38;;;;;;;;;;;;;;;;;;5014986;28;19925;-81
2022/01/05 00:13:03;;;;;;;;;;;;;;;;;;5014785;28;20008;-81
2022/01/05 00:15:30;;;;;;;;;;;;;;;;;;5014295;28;19925;-81
2022/01/05 00:17:56;;;;;;;;;;;;;;;;;;5011416;28;19929;-81
2022/01/05 00:20:24;;;;;;;;;;;;;;;;;;5014355;28;19917;-81
2022/01/05 00:22:49;;;;;;;;;;;;;;;;;;5019010;28;19921;-82
2022/01/05 00:25:17;;;;;;;;;;;;;;;;;;5034134;28;19927;-82
2022/01/05 00:27:44;;;;;;;;;;;;;;;;;;5052457;28;19976;-82
2022/01/05 00:30:12;;;;;;;;;;;;;;;;;;5038409;28;19916;-81
2022/01/05 00:32:38;;;;;;;;;;;;;;;;;;5029123;28;19944;-81
2022/01/05 00:35:03;;;;;;;;;;;;;;;;;;5037380;28;19956;-82
2022/01/05 00:37:28;;;;;;;;;;;;;;;;;;5053594;28;20008;-81
2022/01/05 00:39:53;;;;;;;;;;;;;;;;;;5029403;28;19940;-82
2022/01/05 00:42:19;;;;;;;;;;;;;;;;;;5035141;28;19924;-81
2022/01/05 00:44:44;;;;;;;;;;;;;;;;;;5037352;28;19979;-82
2022/01/05 00:47:09;;;;;;;;;;;;;;;;;;5028844;28;19986;-81
2022/01/05 00:49:37;;;;;;;;;;;;;;;;;;5020623;28;19963;-82
2022/01/05 00:52:07;;;;;;;;;;;;;;;;;;5038113;28;19913;-80
2022/01/05 00:54:32;;;;;;;;;;;;;;;;;;5037776;28;19924;-82
2022/01/05 00:56:59;;;;;;;;;;;;;;;;;;5036761;28;19917;-81
2022/01/05 00:59:25;;;;;;;;;;;;;;;;;;5035030;28;19917;-80
2022/01/05 01:01:53;;;;;;;;;;;;;;;;;;5020548;28;19913;-81
2022/01/05 01:04:18;;;;;;;;;;;;;;;;;;5037591;28;19941;-80
2022/01/05 01:06:43;;;;;;;;;;;;;;;;;;5037943;28;20022;-82
2022/01/05 01:09:09;;;;;;;;;;;;;;;;;;5037954;28;19913;-81
2022/01/05 01:11:34;;;;;;;;;;;;;;;;;;5037888;28;20473;-82
2022/01/05 01:13:59;;;;;;;;;;;;;;;;;;5036373;28;20398;-81
2022/01/05 01:16:27;;;;;;;;;;;;;;;;;;5050618;28;19932;-81
2022/01/05 01:18:52;;;;;;;;;;;;;;;;;;5047307;28;19913;-83
2022/01/05 01:21:17;;;;;;;;;;;;;;;;;;5040421;28;19913;-82
2022/01/05 01:23:55;;;;;;;;;;;;;;;;;;5037186;28;19925;-81
2022/01/05 01:26:20;;;;;;;;;;;;;;;;;;5037627;28;19929;-81
2022/01/05 01:28:46;;;;;;;;;;;;;;;;;;5034816;28;20266;-82
2022/01/05 01:31:11;;;;;;;;;;;;;;;;;;5037225;28;20004;-81
2022/01/05 01:34:06;;;;;;;;;;;;;;;;;;5052761;28;19924;-81
2022/01/05 01:36:33;;;;;;;;;;;;;;;;;;5037582;28;19931;-81
2022/01/05 01:38:59;;;;;;;;;;;;;;;;;;5030723;28;19923;-82
2022/01/05 01:41:27;;;;;;;;;;;;;;;;;;5036923;28;19921;-82
2022/01/05 01:43:59;;;;;;;;;;;;;;;;;;5052462;28;20338;-81
2022/01/05 01:46:27;;;;;;;;;;;;;;;;;;5037017;28;19948;-82
2022/01/05 01:48:52;;;;;;;;;;;;;;;;;;5052245;28;19925;-82
2022/01/05 01:51:18;;;;;;;;;;;;;;;;;;5036907;28;19971;-81
2022/01/05 01:53:43;;;;;;;;;;;;;;;;;;5026312;28;19952;-82
2022/01/05 01:56:08;;;;;;;;;;;;;;;;;;5052675;28;19914;-81
2022/01/05 01:58:34;;;;;;;;;;;;;;;;;;5035865;28;19967;-81
2022/01/05 02:00:59;;;;;;;;;;;;;;;;;;5019537;28;19921;-82
2022/01/05 02:03:24;;;;;;;;;;;;;;;;;;5035770;28;19917;-82
2022/01/05 02:05:50;;;;;;;;;;;;;;;;;;5036525;28;19920;-81
2022/01/05 02:08:15;;;;;;;;;;;;;;;;;;5036318;28;20305;-83
2022/01/05 02:10:40;;;;;;;;;;;;;;;;;;5036563;28;19959;-83
2022/01/05 02:13:08;;;;;;;;;;;;;;;;;;5034070;28;20384;-83
2022/01/05 02:15:33;;;;;;;;;;;;;;;;;;5036669;28;19936;-82
2022/01/05 02:20:27;;;;;;;;;;;;;;;;;;5041071;28;20351;-82
2022/01/05 02:22:53;;;;;;;;;;;;;;;;;;5050109;28;19919;-81
2022/01/05 02:25:18;;;;;;;;;;;;;;;;;;5027650;28;19917;-82
2022/01/05 02:27:47;;;;;;;;;;;;;;;;;;5036270;28;19928;-83
2022/01/05 02:30:13;;;;;;;;;;;;;;;;;;5036123;28;19949;-81
2022/01/05 02:32:41;;;;;;;;;;;;;;;;;;5036150;28;19984;-81
2022/01/05 02:35:06;;;;;;;;;;;;;;;;;;5032966;28;20063;-82
2022/01/05 02:37:31;;;;;;;;;;;;;;;;;;5035944;28;20003;-82
2022/01/05 02:39:56;;;;;;;;;;;;;;;;;;5036141;28;19913;-81
2022/01/05 02:42:41;;;;;;;;;;;;;;;;;;5026760;28;20299;-82
2022/01/05 02:45:07;;;;;;;;;;;;;;;;;;5035933;28;19913;-81
2022/01/05 02:47:36;;;;;;;;;;;;;;;;;;5018559;28;20051;-81
2022/01/05 02:50:01;;;;;;;;;;;;;;;;;;5034644;28;20531;-81
2022/01/05 02:52:26;;;;;;;;;;;;;;;;;;5035638;28;19923;-80
2022/01/05 02:54:52;;;;;;;;;;;;;;;;;;5051421;28;20434;-82
2022/01/05 02:57:20;;;;;;;;;;;;;;;;;;5035746;28;19913;-81
2022/01/05 02:59:45;;;;;;;;;;;;;;;;;;5035735;28;19940;-79
2022/01/05 03:02:10;;;;;;;;;;;;;;;;;;5033613;28;19917;-81
2022/01/05 03:04:35;;;;;;;;;;;;;;;;;;5032498;28;19923;-81
2022/01/05 03:07:00;;;;;;;;;;;;;;;;;;5034538;28;20003;-81
2022/01/05 03:09:26;;;;;;;;;;;;;;;;;;5034643;28;19963;-81
2022/01/05 03:11:51;;;;;;;;;;;;;;;;;;5036956;28;19917;-80
2022/01/05 03:14:21;;;;;;;;;;;;;;;;;;5047341;28;19980;-80
2022/01/05 03:16:46;;;;;;;;;;;;;;;;;;5039899;28;19924;-80
2022/01/05 03:19:12;;;;;;;;;;;;;;;;;;5034273;28;19912;-81
2022/01/05 03:21:40;;;;;;;;;;;;;;;;;;5028782;28;19924;-82
2022/01/05 03:24:05;;;;;;;;;;;;;;;;;;5017084;28;19999;-81
2022/01/05 03:26:30;;;;;;;;;;;;;;;;;;5035009;28;20011;-81
2022/01/05 03:28:56;;;;;;;;;;;;;;;;;;5034343;28;19920;-81
2022/01/05 03:31:23;;;;;;;;;;;;;;;;;;5035081;28;19932;-80
2022/01/05 03:33:51;;;;;;;;;;;;;;;;;;5017263;28;19931;-81
2022/01/05 03:36:16;;;;;;;;;;;;;;;;;;5050940;28;20350;-81
2022/01/05 03:38:41;;;;;;;;;;;;;;;;;;5035094;28;19913;-82
2022/01/05 03:41:07;;;;;;;;;;;;;;;;;;5034850;28;20392;-82
2022/01/05 03:43:32;;;;;;;;;;;;;;;;;;5050816;28;20338;-80
2022/01/05 03:45:57;;;;;;;;;;;;;;;;;;5040503;28;20395;-81
2022/01/05 03:48:23;;;;;;;;;;;;;;;;;;5049852;28;19913;-81
2022/01/05 03:50:48;;;;;;;;;;;;;;;;;;5055377;28;19916;-81
2022/01/05 03:53:13;;;;;;;;;;;;;;;;;;5035210;28;19936;-80
2022/01/05 03:55:39;;;;;;;;;;;;;;;;;;5050900;28;19913;-80
2022/01/05 03:58:05;;;;;;;;;;;;;;;;;;5050644;28;19944;-79
2022/01/05 04:00:30;;;;;;;;;;;;;;;;;;5049413;28;19917;-80
2022/01/05 04:02:56;;;;;;;;;;;;;;;;;;5050491;28;20301;-79
2022/01/05 04:05:21;;;;;;;;;;;;;;;;;;5034674;28;19975;-79
2022/01/05 04:07:47;;;;;;;;;;;;;;;;;;5034795;28;19921;-80
2022/01/05 04:10:12;;;;;;;;;;;;;;;;;;5034522;28;19917;-79
2022/01/05 04:12:39;;;;;;;;;;;;;;;;;;5034673;28;19940;-80
2022/01/05 04:15:05;;;;;;;;;;;;;;;;;;5033649;28;19917;-80
2022/01/05 04:17:30;;;;;;;;;;;;;;;;;;5034196;28;20401;-79
2022/01/05 04:19:55;;;;;;;;;;;;;;;;;;5034668;28;19913;-80
2022/01/05 04:22:21;;;;;;;;;;;;;;;;;;5033392;28;19967;-80
2022/01/05 04:24:46;;;;;;;;;;;;;;;;;;5033629;28;19920;-80
2022/01/05 04:27:11;;;;;;;;;;;;;;;;;;5034220;28;20368;-80
2022/01/05 04:29:36;;;;;;;;;;;;;;;;;;5033460;28;19920;-80
2022/01/05 04:32:02;;;;;;;;;;;;;;;;;;5034413;28;20481;-79
2022/01/05 04:34:27;;;;;;;;;;;;;;;;;;5034590;28;19963;-79
2022/01/05 04:36:52;;;;;;;;;;;;;;;;;;5032088;28;19924;-79
2022/01/05 04:39:17;;;;;;;;;;;;;;;;;;5017848;28;19979;-81
2022/01/05 04:41:43;;;;;;;;;;;;;;;;;;5030155;28;20397;-81
2022/01/05 04:44:08;;;;;;;;;;;;;;;;;;5030288;28;19914;-79
2022/01/05 04:46:33;;;;;;;;;;;;;;;;;;5028613;28;19917;-78
2022/01/05 04:48:58;;;;;;;;;;;;;;;;;;5014668;28;19929;-79
2022/01/05 04:51:23;;;;;;;;;;;;;;;;;;5013618;28;19913;-80
2022/01/05 04:53:49;;;;;;;;;;;;;;;;;;5017652;28;19925;-80
2022/01/05 04:56:14;;;;;;;;;;;;;;;;;;5034192;28;19933;-79
2022/01/05 04:58:41;;;;;;;;;;;;;;;;;;5034248;28;20445;-78
2022/01/05 05:01:06;;;;;;;;;;;;;;;;;;5033277;28;19914;-78
2022/01/05 05:03:34;;;;;;;;;;;;;;;;;;5025561;28;19979;-80
2022/01/05 05:05:59;;;;;;;;;;;;;;;;;;5028838;28;20280;-80
2022/01/05 05:08:24;;;;;;;;;;;;;;;;;;5014401;28;19917;-79
2022/01/05 05:10:50;;;;;;;;;;;;;;;;;;5013982;28;20012;-79
2022/01/05 05:13:15;;;;;;;;;;;;;;;;;;5030123;28;19992;-80
2022/01/05 05:15:40;;;;;;;;;;;;;;;;;;5037827;28;19932;-80
2022/01/05 05:18:05;;;;;;;;;;;;;;;;;;5037782;28;19932;-82
2022/01/05 05:20:32;;;;;;;;;;;;;;;;;;5037731;28;19913;-80
2022/01/05 05:22:57;;;;;;;;;;;;;;;;;;5037489;28;19917;-80
2022/01/05 05:25:23;;;;;;;;;;;;;;;;;;5037801;28;19913;-80
2022/01/05 05:27:48;;;;;;;;;;;;;;;;;;5037528;28;19932;-82
2022/01/05 05:30:13;;;;;;;;;;;;;;;;;;5036318;28;20273;-78
2022/01/05 05:32:38;;;;;;;;;;;;;;;;;;5037510;28;20246;-83
2022/01/05 05:35:05;;;;;;;;;;;;;;;;;;5037357;28;20282;-81
2022/01/05 05:37:30;;;;;;;;;;;;;;;;;;5049379;28;19917;-82
2022/01/05 05:39:58;;;;;;;;;;;;;;;;;;5024809;28;19928;-80
2022/01/05 05:42:24;;;;;;;;;;;;;;;;;;5037423;28;19912;-80
2022/01/05 05:44:49;;;;;;;;;;;;;;;;;;5037277;28;19924;-80
2022/01/05 05:47:16;;;;;;;;;;;;;;;;;;5037323;28;19917;-80
2022/01/05 05:49:41;;;;;;;;;;;;;;;;;;5036970;28;19916;-79
2022/01/05 05:52:07;;;;;;;;;;;;;;;;;;5036301;28;19913;-79
2022/01/05 05:54:34;;;;;;;;;;;;;;;;;;5037274;28;19913;-79
2022/01/05 05:56:59;;;;;;;;;;;;;;;;;;5036301;28;19929;-79
2022/01/05 05:59:24;;;;;;;;;;;;;;;;;;5036738;28;19923;-81
2022/01/05 06:01:52;;;;;;;;;;;;;;;;;;5036256;28;19935;-80
2022/01/05 06:04:19;;;;;;;;;;;;;;;;;;5043011;28;19988;-80
2022/01/05 06:06:44;;;;;;;;;;;;;;;;;;5050244;28;19932;-82
2022/01/05 06:09:09;;;;;;;;;;;;;;;;;;5023252;28;19913;-79
2022/01/05 06:11:35;;;;;;;;;;;;;;;;;;5037964;28;20058;-80
2022/01/05 06:14:00;;;;;;;;;;;;;;;;;;5037032;28;20007;-81
2022/01/05 06:16:27;;;;;;;;;;;;;;;;;;5036679;28;20016;-80
2022/01/05 06:18:52;;;;;;;;;;;;;;;;;;5037258;28;19913;-79
2022/01/05 06:21:20;;;;;;;;;;;;;;;;;;5036589;28;19925;-80
2022/01/05 06:23:45;;;;;;;;;;;;;;;;;;5034848;28;19925;-80
2022/01/05 06:26:10;;;;;;;;;;;;;;;;;;5034383;28;19917;-80
2022/01/05 06:28:36;;;;;;;;;;;;;;;;;;5032731;28;19916;-79
2022/01/05 06:31:01;;;;;;;;;;;;;;;;;;5036710;28;19967;-81
2022/01/05 06:33:26;;;;;;;;;;;;;;;;;;5035815;28;19914;-81
2022/01/05 06:35:53;;;;;;;;;;;;;;;;;;5036069;28;19996;-80
2022/01/05 06:38:19;;;;;;;;;;;;;;;;;;5051795;28;19917;-80
2022/01/05 06:40:44;;;;;;;;;;;;;;;;;;5052085;28;20377;-79
2022/01/05 06:43:09;;;;;;;;;;;;;;;;;;5035829;28;19913;-80
2022/01/05 06:45:35;;;;;;;;;;;;;;;;;;5036238;28;19917;-81
2022/01/05 06:48:00;;;;;;;;;;;;;;;;;;5051755;28;19913;-79
2022/01/05 06:50:25;;;;;;;;;;;;;;;;;;5036144;28;19970;-83
2022/01/05 06:52:55;;;;;;;;;;;;;;;;;;5035632;28;19953;-81
2022/01/05 06:55:20;;;;;;;;;;;;;;;;;;5019405;28;19913;-80
2022/01/05 06:57:47;;;;;;;;;;;;;;;;;;5035756;28;20266;-79
2022/01/05 07:00:12;;;;;;;;;;;;;;;;;;5034769;28;19912;-79
2022/01/05 07:02:37;;;;;;;;;;;;;;;;;;5035733;28;19913;-83
2022/01/05 07:05:03;;;;;;;;;;;;;;;;;;5051692;28;19913;-81
2022/01/05 07:07:29;;;;;;;;;;;;;;;;;;5035687;28;19920;-83
2022/01/05 07:09:54;;;;;;;;;;;;;;;;;;5035910;28;19913;-80
2022/01/05 07:12:19;;;;;;;;;;;;;;;;;;5035401;28;20354;-82
2022/01/05 07:14:44;;;;;;;;;;;;;;;;;;5035480;28;19916;-80
2022/01/05 07:17:10;;;;;;;;;;;;;;;;;;5035778;28;19925;-84
2022/01/05 07:19:35;;;;;;;;;;;;;;;;;;5035507;28;19924;-84
2022/01/05 07:22:00;;;;;;;;;;;;;;;;;;5035650;28;20404;-81
2022/01/05 07:24:25;;;;;;;;;;;;;;;;;;5035531;28;19917;-80
2022/01/05 07:26:53;;;;;;;;;;;;;;;;;;5035572;28;19913;-82
2022/01/05 07:29:19;;;;;;;;;;;;;;;;;;5035204;28;19917;-80
2022/01/05 07:31:44;;;;;;;;;;;;;;;;;;5035681;28;19962;-83
2022/01/05 07:34:09;;;;;;;;;;;;;;;;;;5018282;28;19913;-80
2022/01/05 07:36:35;;;;;;;;;;;;;;;;;;5035096;28;20090;-81
2022/01/05 07:39:02;;;;;;;;;;;;;;;;;;5034296;28;19928;-81
2022/01/05 07:41:28;;;;;;;;;;;;;;;;;;5035416;28;20000;-80
2022/01/05 07:43:53;;;;;;;;;;;;;;;;;;5034551;28;20002;-82
2022/01/05 07:46:18;;;;;;;;;;;;;;;;;;5051076;28;19920;-79
2022/01/05 07:48:46;;;;;;;;;;;;;;;;;;5050752;28;19961;-80
2022/01/05 07:51:12;;;;;;;;;;;;;;;;;;5035545;28;20285;-80
2022/01/05 07:53:40;;;;;;;;;;;;;;;;;;5034759;28;19917;-83
2022/01/05 07:56:08;;;;;;;;;;;;;;;;;;5035181;28;19996;-82
2022/01/05 07:58:33;;;;;;;;;;;;;;;;;;5035114;28;20390;-84
2022/01/05 08:00:58;;;;;;;;;;;;;;;;;;5035000;28;19957;-84
2022/01/05 08:03:25;;;;;;;;;;;;;;;;;;5035005;28;19928;-82
2022/01/05 08:05:50;;;;;;;;;;;;;;;;;;5035153;28;20342;-83
2022/01/05 08:08:16;;;;;;;;;;;;;;;;;;5035014;28;19913;-82
2022/01/05 08:10:41;;;;;;;;;;;;;;;;;;5035158;28;19940;-83
2022/01/05 08:13:07;;;;;;;;;;;;;;;;;;5034355;28;19913;-83
2022/01/05 08:15:32;;;;;;;;;;;;;;;;;;5035112;28;19956;-84
2022/01/05 08:17:57;;;;;;;;;;;;;;;;;;5051278;28;19964;-81
2022/01/05 08:20:22;;;;;;;;;;;;;;;;;;5046236;28;19917;-82
2022/01/05 08:22:47;;;;;;;;;;;;;;;;;;5046208;28;19990;-82
2022/01/05 08:25:13;;;;;;;;;;;;;;;;;;5036374;28;20409;-83
2022/01/05 08:27:46;;;;;;;;;;;;;;;;;;5050787;28;20388;-83
2022/01/05 08:30:18;;;;;;;;;;;;;;;;;;5048335;28;19917;-83
2022/01/05 08:32:46;;;;;;;;;;;;;;;;;;5034367;28;19921;-81
2022/01/05 08:35:12;;;;;;;;;;;;;;;;;;5033248;28;20353;-81
2022/01/05 08:37:38;;;;;;;;;;;;;;;;;;5034445;28;19918;-80
2022/01/05 08:40:06;;;;;;;;;;;;;;;;;;5033419;28;19917;-79
2022/01/05 08:42:31;;;;;;;;;;;;;;;;;;5034469;28;19920;-81
2022/01/05 08:44:59;;;;;;;;;;;;;;;;;;5034448;28;19913;-80
2022/01/05 08:47:24;;;;;;;;;;;;;;;;;;5035175;28;19913;-78
2022/01/05 08:49:49;;;;;;;;;;;;;;;;;;5035721;28;19927;-79
2022/01/05 08:52:14;;;;;;;;;;;;;;;;;;5034341;28;19974;-79
2022/01/05 08:54:44;;;;;;;;;;;;;;;;;;5036788;28;19921;-80
2022/01/05 08:57:10;;;;;;;;;;;;;;;;;;5036474;28;19921;-80
2022/01/05 08:59:36;;;;;;;;;;;;;;;;;;5036576;28;19921;-81
2022/01/05 09:02:02;;;;;;;;;;;;;;;;;;5035627;28;19964;-79
2022/01/05 09:04:29;;;;;;;;;;;;;;;;;;5037861;28;19967;-82
2022/01/05 09:06:57;;;;;;;;;;;;;;;;;;5037855;28;20051;-81
2022/01/05 09:09:22;;;;;;;;;;;;;;;;;;5018242;28;19914;-80
2022/01/05 09:11:47;;;;;;;;;;;;;;;;;;5034199;28;19924;-82
2022/01/05 09:14:15;;;;;;;;;;;;;;;;;;5037486;28;19917;-82
2022/01/05 09:16:43;;;;;;;;;;;;;;;;;;5036727;28;19917;-80
2022/01/05 09:19:08;;;;;;;;;;;;;;;;;;5036529;28;19917;-80
2022/01/05 09:21:33;;;;;;;;;;;;;;;;;;5037994;28;19913;-83
2022/01/05 09:23:58;;;;;;;;;;;;;;;;;;5037608;28;19921;-82
2022/01/05 09:26:24;;;;;;;;;;;;;;;;;;5026228;28;19975;-82
2022/01/05 09:28:49;;;;;;;;;;;;;;;;;;5029980;28;19924;-82
2022/01/05 09:31:15;;;;;;;;;;;;;;;;;;5037072;28;19925;-80
2022/01/05 09:33:40;;;;;;;;;;;;;;;;;;5037481;28;20358;-79
2022/01/05 09:36:13;;;;;;;;;;;;;;;;;;5037383;28;19928;-81
2022/01/05 09:43:56;;;;;;;;;;;;;;;;;;5036654;28;19971;-80
2022/01/05 09:46:32;;;;;;;;;;;;;;;;;;5037267;28;19920;-80
2022/01/05 09:48:59;;;;;;;;;;;;;;;;;;5036007;28;20242;-81
2022/01/05 09:51:25;;;;;;;;;;;;;;;;;;5037053;28;19917;-79
2022/01/05 09:53:50;;;;;;;;;;;;;;;;;;5035974;28;20362;-83
2022/01/05 09:56:15;;;;;;;;;;;;;;;;;;5036531;28;19913;-82
2022/01/05 09:58:43;;;;;;;;;;;;;;;;;;5033907;28;19924;-82
2022/01/05 10:01:08;;;;;;;;;;;;;;;;;;5034175;28;19992;-79
2022/01/05 10:03:33;;;;;;;;;;;;;;;;;;5036962;28;19913;-80
2022/01/05 10:06:01;;;;;;;;;;;;;;;;;;5035734;28;19927;-81
2022/01/05 10:08:28;;;;;;;;;;;;;;;;;;5035975;28;19912;-80
2022/01/05 10:10:54;;;;;;;;;;;;;;;;;;5037252;28;19913;-83
2022/01/05 10:13:24;;;;;;;;;;;;;;;;;;5037281;28;19923;-82
2022/01/05 10:15:49;;;;;;;;;;;;;;;;;;5036590;28;19917;-81
2022/01/05 10:18:18;;;;;;;;;;;;;;;;;;5036512;28;19932;-78
2022/01/05 10:21:00;;;;;;;;;;;;;;;;;;5036853;28;19913;-82
2022/01/05 10:23:33;;;;;;;;;;;;;;;;;;5035316;28;19921;-83
2022/01/05 10:26:19;;;;;;;;;;;;;;;;;;5036164;28;20008;-84
2022/01/05 10:28:45;;;;;;;;;;;;;;;;;;5035993;28;19917;-80
2022/01/05 10:31:18;;;;;;;;;;;;;;;;;;5036658;28;19923;-81
2022/01/05 10:33:46;;;;;;;;;;;;;;;;;;5047286;28;19943;-85
2022/01/05 10:36:11;;;;;;;;;;;;;;;;;;5040117;28;19953;-89
2022/01/05 10:38:41;;;;;;;;;;;;;;;;;;5039593;28;19928;-88
2022/01/05 10:41:16;;;;;;;;;;;;;;;;;;5039807;28;19917;-89
2022/01/05 10:44:00;;;;;;;;;;;;;;;;;;5041505;28;19913;-89
2022/01/05 10:46:32;;;;;;;;;;;;;;;;;;5039117;28;19928;-87
2022/01/05 10:48:58;;;;;;;;;;;;;;;;;;5042342;28;20338;-84
2022/01/05 10:51:28;;;;;;;;;;;;;;;;;;5053995;28;19923;-77
2022/01/05 10:54:08;;;;;;;;;;;;;;;;;;5038214;28;19921;-88
2022/01/05 10:56:33;;;;;;;;;;;;;;;;;;5043834;28;19917;-88
2022/01/05 10:58:59;;;;;;;;;;;;;;;;;;5038316;28;20235;-89
2022/01/05 11:01:29;;;;;;;;;;;;;;;;;;5035115;28;20341;-84
2022/01/05 11:03:57;;;;;;;;;;;;;;;;;;5035239;28;19971;-89
2022/01/05 11:06:23;;;;;;;;;;;;;;;;;;5036459;28;19967;-87
2022/01/05 11:08:55;;;;;;;;;;;;;;;;;;5035820;28;20008;-85
2022/01/05 11:11:35;;;;;;;;;;;;;;;;;;5036754;28;19913;-89
2022/01/05 11:14:00;;;;;;;;;;;;;;;;;;5037246;28;20308;-89
2022/01/05 11:16:26;;;;;;;;;;;;;;;;;;5036470;28;20003;-87
2022/01/05 11:18:54;;;;;;;;;;;;;;;;;;5036049;28;20004;-87
2022/01/05 11:21:19;;;;;;;;;;;;;;;;;;5035819;28;19924;-89
2022/01/05 11:23:44;;;;;;;;;;;;;;;;;;5036362;28;19917;-91
2022/01/05 11:26:09;;;;;;;;;;;;;;;;;;5036148;28;19928;-87
2022/01/05 11:28:35;;;;;;;;;;;;;;;;;;5036321;28;19921;-92
2022/01/05 11:31:00;;;;;;;;;;;;;;;;;;5052665;28;19924;-85
2022/01/05 11:33:25;;;;;;;;;;;;;;;;;;5036637;28;19913;-87
2022/01/05 11:35:57;;;;;;;;;;;;;;;;;;5022191;28;19914;-91
2022/01/05 11:38:22;;;;;;;;;;;;;;;;;;5038545;28;19932;-84
2022/01/05 11:40:49;;;;;;;;;;;;;;;;;;5041240;28;20243;-88
2022/01/05 11:43:20;;;;;;;;;;;;;;;;;;5038433;28;19924;-85
2022/01/05 11:45:47;;;;;;;;;;;;;;;;;;5039017;28;19932;-84
2022/01/05 11:48:16;;;;;;;;;;;;;;;;;;5035891;28;21397;-90
2022/01/05 11:50:44;;;;;;;;;;;;;;;;;;5032806;28;20303;-88
2022/01/05 11:53:11;;;;;;;;;;;;;;;;;;5035912;28;19924;-86
2022/01/05 11:55:57;;;;;;;;;;;;;;;;;;5035695;28;20297;-91
2022/01/05 11:58:25;;;;;;;;;;;;;;;;;;5035001;28;20331;-85
2022/01/05 12:01:09;;;;;;;;;;;;;;;;;;5034561;28;19917;-88
2022/01/05 12:03:49;;;;;;;;;;;;;;;;;;5036127;28;19912;-88
2022/01/05 12:06:17;;;;;;;;;;;;;;;;;;5035311;28;20351;-86
2022/01/05 12:08:43;;;;;;;;;;;;;;;;;;5035370;28;19945;-88
2022/01/05 12:11:28;;;;;;;;;;;;;;;;;;5034550;28;19914;-88
2022/01/05 12:13:53;;;;;;;;;;;;;;;;;;5035629;28;20347;-82
2022/01/05 12:16:18;;;;;;;;;;;;;;;;;;5035634;28;19920;-90
2022/01/05 12:18:45;;;;;;;;;;;;;;;;;;5035858;28;19943;-90
2022/01/05 12:21:30;;;;;;;;;;;;;;;;;;5050471;28;19947;-90
2022/01/05 12:23:55;;;;;;;;;;;;;;;;;;5035136;28;19920;-88
2022/01/05 12:26:20;;;;;;;;;;;;;;;;;;5035349;28;19913;-86
2022/01/05 12:28:53;;;;;;;;;;;;;;;;;;5034038;28;19913;-89
2022/01/05 12:31:18;;;;;;;;;;;;;;;;;;5034257;28;19913;-85
2022/01/05 12:33:51;;;;;;;;;;;;;;;;;;5016938;28;20418;-86
2022/01/05 12:36:38;;;;;;;;;;;;;;;;;;5022408;28;19971;-86
2022/01/05 12:39:07;;;;;;;;;;;;;;;;;;5050793;28;20319;-90
2022/01/05 12:41:32;;;;;;;;;;;;;;;;;;5050546;28;20002;-87
2022/01/05 12:44:01;;;;;;;;;;;;;;;;;;5034934;28;20338;-88
2022/01/05 12:46:32;;;;;;;;;;;;;;;;;;5049405;28;19931;-87
2022/01/05 12:48:58;;;;;;;;;;;;;;;;;;5034211;28;19967;-88
2022/01/05 12:51:34;;;;;;;;;;;;;;;;;;5033952;28;20338;-88
2022/01/05 12:54:06;;;;;;;;;;;;;;;;;;5034154;28;19928;-88
2022/01/05 12:56:44;;;;;;;;;;;;;;;;;;5016999;28;19913;-87
2022/01/05 12:59:14;;;;;;;;;;;;;;;;;;5034338;28;19913;-87
2022/01/05 13:01:41;;;;;;;;;;;;;;;;;;5034142;28;19921;-85
2022/01/05 13:04:09;;;;;;;;;;;;;;;;;;5035357;28;19917;-88
2022/01/05 13:06:35;;;;;;;;;;;;;;;;;;5034535;28;19921;-89
2022/01/05 13:09:04;;;;;;;;;;;;;;;;;;5033922;28;20239;-88
2022/01/05 13:11:46;;;;;;;;;;;;;;;;;;5035104;28;19924;-84
2022/01/05 13:14:20;;;;;;;;;;;;;;;;;;5034211;28;19914;-85
2022/01/05 13:16:46;;;;;;;;;;;;;;;;;;5032320;28;19936;-87
2022/01/05 13:19:30;;;;;;;;;;;;;;;;;;5034997;28;19913;-87
2022/01/05 13:21:57;;;;;;;;;;;;;;;;;;5040020;28;19927;-87
2022/01/05 13:24:39;;;;;;;;;;;;;;;;;;5048681;28;19936;-82
2022/01/05 13:27:05;;;;;;;;;;;;;;;;;;5047782;28;19913;-88
2022/01/05 13:29:30;;;;;;;;;;;;;;;;;;5022341;28;20016;-86
2022/01/05 13:31:57;;;;;;;;;;;;;;;;;;5035232;28;20310;-87
2022/01/05 13:34:34;;;;;;;;;;;;;;;;;;5036202;28;20050;-87
2022/01/05 13:37:00;;;;;;;;;;;;;;;;;;5036995;28;20016;-86
2022/01/05 13:39:35;;;;;;;;;;;;;;;;;;5038428;28;19974;-87
2022/01/05 13:42:00;;;;;;;;;;;;;;;;;;5036543;28;20011;-87
2022/01/05 13:44:28;;;;;;;;;;;;;;;;;;5037866;28;19956;-86
2022/01/05 13:46:53;;;;;;;;;;;;;;;;;;5038059;28;19913;-85
2022/01/05 13:49:18;;;;;;;;;;;;;;;;;;5037360;28;19924;-82
2022/01/05 13:52:00;;;;;;;;;;;;;;;;;;5033174;28;19913;-80
2022/01/05 13:54:25;;;;;;;;;;;;;;;;;;5017511;28;19920;-86
2022/01/05 13:56:51;;;;;;;;;;;;;;;;;;5033656;28;20044;-84
2022/01/05 13:59:18;;;;;;;;;;;;;;;;;;5035446;28;19975;-84
2022/01/05 14:02:01;;;;;;;;;;;;;;;;;;5036519;28;20239;-85
2022/01/05 14:04:26;;;;;;;;;;;;;;;;;;5037021;28;19917;-86
2022/01/05 14:06:58;;;;;;;;;;;;;;;;;;5037111;28;20408;-82
2022/01/05 14:09:27;;;;;;;;;;;;;;;;;;5035717;28;20012;-81
2022/01/05 14:11:57;;;;;;;;;;;;;;;;;;5035747;28;19991;-83
2022/01/05 14:14:22;;;;;;;;;;;;;;;;;;5036872;28;19947;-81
2022/01/05 14:16:50;;;;;;;;;;;;;;;;;;5052635;28;19917;-84
2022/01/05 14:19:34;;;;;;;;;;;;;;;;;;5051947;28;19917;-85
2022/01/05 14:22:03;;;;;;;;;;;;;;;;;;5035944;28;19979;-84
2022/01/05 14:24:29;;;;;;;;;;;;;;;;;;5035672;28;20077;-87
2022/01/05 14:26:55;;;;;;;;;;;;;;;;;;5051982;28;20381;-84
2022/01/05 14:29:25;;;;;;;;;;;;;;;;;;5036291;28;19917;-85
2022/01/05 14:31:51;;;;;;;;;;;;;;;;;;5036279;28;19976;-81
2022/01/05 14:34:18;;;;;;;;;;;;;;;;;;5036296;28;19998;-83
2022/01/05 14:36:44;;;;;;;;;;;;;;;;;;5036411;28;19917;-86
2022/01/05 14:39:10;;;;;;;;;;;;;;;;;;5035308;28;19936;-83
2022/01/05 14:41:35;;;;;;;;;;;;;;;;;;5036409;28;20330;-83
2022/01/05 14:44:06;;;;;;;;;;;;;;;;;;5028888;28;20272;-81
2022/01/05 14:46:31;;;;;;;;;;;;;;;;;;5028311;28;19928;-84
2022/01/05 14:48:57;;;;;;;;;;;;;;;;;;5034972;28;19917;-83
2022/01/05 14:51:22;;;;;;;;;;;;;;;;;;5018445;28;19924;-83
2022/01/05 14:53:48;;;;;;;;;;;;;;;;;;5035706;28;19917;-81
2022/01/05 14:56:13;;;;;;;;;;;;;;;;;;5051720;28;20369;-81
2022/01/05 14:58:38;;;;;;;;;;;;;;;;;;5051423;28;19917;-81
2022/01/05 15:01:03;;;;;;;;;;;;;;;;;;5035837;28;20283;-80
2022/01/05 15:03:28;;;;;;;;;;;;;;;;;;5048061;28;19917;-80
2022/01/05 15:05:54;;;;;;;;;;;;;;;;;;5016057;28;19914;-80
2022/01/05 15:08:19;;;;;;;;;;;;;;;;;;4998846;28;19914;-78
2022/01/05 15:10:44;;;;;;;;;;;;;;;;;;5016076;28;20331;-81
2022/01/05 15:13:12;;;;;;;;;;;;;;;;;;5032040;28;20326;-80
2022/01/05 15:15:38;;;;;;;;;;;;;;;;;;5051295;28;19913;-81
2022/01/05 15:18:05;;;;;;;;;;;;;;;;;;5035553;28;19958;-80
2022/01/05 15:20:30;;;;;;;;;;;;;;;;;;5035379;28;19942;-80
2022/01/05 15:22:57;;;;;;;;;;;;;;;;;;5033831;28;20420;-87
2022/01/05 15:25:23;;;;;;;;;;;;;;;;;;5035621;28;20343;-85
2022/01/05 15:27:48;;;;;;;;;;;;;;;;;;5035542;28;19924;-86
2022/01/05 15:30:13;;;;;;;;;;;;;;;;;;5035029;28;20265;-84
2022/01/05 15:32:40;;;;;;;;;;;;;;;;;;5035304;28;19923;-82
2022/01/05 15:35:05;;;;;;;;;;;;;;;;;;5035264;28;19996;-87
2022/01/05 15:37:30;;;;;;;;;;;;;;;;;;5035431;28;19952;-86
2022/01/05 15:40:03;;;;;;;;;;;;;;;;;;5034091;28;19940;-86
2022/01/05 15:42:28;;;;;;;;;;;;;;;;;;5007471;28;20396;-88
2022/01/05 15:44:54;;;;;;;;;;;;;;;;;;5034754;28;19952;-87
2022/01/05 15:47:19;;;;;;;;;;;;;;;;;;5030573;28;19917;-88
2022/01/05 15:49:44;;;;;;;;;;;;;;;;;;5019930;28;19921;-85
2022/01/05 15:52:12;;;;;;;;;;;;;;;;;;5035084;28;20416;-86
2022/01/05 15:54:44;;;;;;;;;;;;;;;;;;5035343;28;19924;-83
2022/01/05 15:57:28;;;;;;;;;;;;;;;;;;5038667;28;19921;-81
2022/01/05 16:02:37;;;;;;;;;;;;;;;;;;5033479;28;20341;-82
2022/01/05 16:05:03;;;;;;;;;;;;;;;;;;5032160;28;20004;-82
2022/01/05 16:07:28;;;;;;;;;;;;;;;;;;5034822;28;20000;-84
2022/01/05 16:10:12;;;;;;;;;;;;;;;;;;5025336;28;19924;-83
2022/01/05 16:12:39;;;;;;;;;;;;;;;;;;5033671;28;19943;-85
2022/01/05 16:15:05;;;;;;;;;;;;;;;;;;5034754;28;19963;-82
2022/01/05 16:17:30;;;;;;;;;;;;;;;;;;5033360;28;19988;-83
2022/01/05 16:19:55;;;;;;;;;;;;;;;;;;5034245;28;19933;-85
2022/01/05 16:22:21;;;;;;;;;;;;;;;;;;5034625;28;20386;-83
2022/01/05 16:24:46;;;;;;;;;;;;;;;;;;5033517;28;19913;-78
2022/01/05 16:27:14;;;;;;;;;;;;;;;;;;5034784;28;19924;-82
2022/01/05 16:29:39;;;;;;;;;;;;;;;;;;5019838;28;19917;-83
2022/01/05 16:32:05;;;;;;;;;;;;;;;;;;5025249;28;20655;-83
2022/01/05 16:34:33;;;;;;;;;;;;;;;;;;5052497;28;19913;-83
2022/01/05 16:36:59;;;;;;;;;;;;;;;;;;5040108;28;19959;-86
2022/01/05 16:39:24;;;;;;;;;;;;;;;;;;5038860;28;20326;-86
2022/01/05 16:41:51;;;;;;;;;;;;;;;;;;5036888;28;20286;-83
2022/01/05 16:44:17;;;;;;;;;;;;;;;;;;5031262;28;19968;-86
2022/01/05 16:46:42;;;;;;;;;;;;;;;;;;5051054;28;19917;-86
2022/01/05 16:49:09;;;;;;;;;;;;;;;;;;5042068;28;20251;-89
2022/01/05 16:51:35;;;;;;;;;;;;;;;;;;5042758;28;19913;-88
2022/01/05 16:54:00;;;;;;;;;;;;;;;;;;5042035;28;19917;-92
2022/01/05 17:00:25;;;;;;;;;;;;;;;;;;5021427;28;19963;-82